24J

Suwannee County Airport

Live Oak, Florida, USA
METAR K24J 171435Z AUTO 00000KT 10SM CLR 29/24 A3020 RMK A01
Observed Flight Rules
Aug-17 @ 14:35 UTC (22 minutes ago) Visual Flight Rules
Visibility Clouds
10 miles
  • Clear skies
Temperatures Readings
Current 29°C / 84°F
Dewpoint 24°C / 75°F
Humidity 74%
Altimeter 30.2" Hg
Pressure 1023 hPa
Elevation 32
METAR K24J 171435Z AUTO 00000KT 10SM CLR 29/24 A3020 RMK A01
Observed Flight Rules
Aug-17 @ 14:35 UTC
(22 minutes ago)
VFR
Clouds
  • Clear skies
Temperature Dewpoint
29°C / 84°F 24°C / 75°F
Humidity Altimeter Pressure
74% 30.2" Hg 1023 hPa